createdAt,value
2024-02-28T05:02:59.355Z,79.27
2024-02-28T05:06:01.917Z,79.27
2024-02-28T05:09:04.301Z,82.17
2024-02-28T05:12:07.075Z,90.00
2024-02-28T05:15:09.348Z,85.96
2024-02-28T05:18:11.861Z,86.04
2024-02-28T05:21:14.494Z,90.81
2024-02-28T05:24:17.002Z,84.56
2024-02-28T05:27:19.309Z,95.67
2024-02-28T05:30:22.648Z,78.77
2024-02-28T05:33:24.854Z,87.44
2024-02-28T05:36:28.984Z,79.54
2024-02-28T05:39:32.113Z,78.25
2024-02-28T05:42:34.657Z,91.19
2024-02-28T05:45:36.899Z,80.11
2024-02-28T05:48:39.540Z,84.24
2024-02-28T05:51:41.791Z,98.21
2024-02-28T05:54:44.286Z,83.40
2024-02-28T05:57:46.498Z,80.37
2024-02-28T06:00:49.123Z,89.10
2024-02-28T06:03:54.740Z,86.94
2024-02-28T06:06:57.206Z,95.71
2024-02-28T06:09:59.881Z,78.88
2024-02-28T06:13:03.258Z,86.57
2024-02-28T06:16:05.762Z,85.10
2024-02-28T06:19:07.937Z,88.89
2024-02-28T06:22:10.448Z,88.02
2024-02-28T06:25:23.797Z,83.20
2024-02-28T06:28:26.319Z,80.75
2024-02-28T06:31:32.356Z,88.88
2024-02-28T06:34:34.823Z,78.07
2024-02-28T06:37:37.361Z,79.69
2024-02-28T06:40:40.030Z,75.53
2024-02-28T06:43:42.670Z,97.99
2024-02-28T06:46:45.176Z,79.79
2024-02-28T06:49:47.387Z,86.13
2024-02-28T06:52:49.824Z,87.29
2024-02-28T06:55:51.991Z,92.99
2024-02-28T06:58:54.448Z,76.71
2024-02-28T07:01:56.860Z,92.58
2024-02-28T07:04:59.765Z,84.59
2024-02-28T07:08:02.121Z,75.80
2024-02-28T07:11:04.704Z,76.49
2024-02-28T07:14:06.866Z,75.74
2024-02-28T07:17:09.472Z,78.80
2024-02-28T07:20:13.351Z,80.21
2024-02-28T07:23:16.057Z,79.88
2024-02-28T07:26:26.457Z,96.05
2024-02-28T07:29:29.886Z,79.54
2024-02-28T07:32:35.926Z,93.99
2024-02-28T07:35:48.508Z,80.55
2024-02-28T07:38:50.660Z,76.34
2024-02-28T07:41:56.094Z,84.92
2024-02-28T07:44:58.757Z,84.59
2024-02-28T07:48:02.153Z,82.38
2024-02-28T07:51:08.789Z,80.33
2024-02-28T07:54:11.312Z,73.95
2024-02-28T07:57:13.928Z,78.65
2024-02-28T08:00:19.162Z,76.70
2024-02-28T08:03:21.715Z,84.41
2024-02-28T08:06:23.997Z,82.08
2024-02-28T08:09:26.580Z,75.56
2024-02-28T08:12:28.746Z,81.79
2024-02-28T08:15:31.316Z,80.02
2024-02-28T08:18:34.609Z,79.94
2024-02-28T08:21:37.135Z,80.48
2024-02-28T08:24:39.990Z,72.38
2024-02-28T08:27:42.665Z,72.68
2024-02-28T08:30:44.898Z,92.62
2024-02-28T08:33:49.411Z,87.11
2024-02-28T08:36:53.178Z,94.79
2024-02-28T08:39:59.788Z,80.95
2024-02-28T08:43:02.069Z,87.33
2024-02-28T08:46:05.041Z,71.33
2024-02-28T08:49:07.389Z,76.12
2024-02-28T08:52:09.960Z,81.33
2024-02-28T08:55:12.425Z,81.49
2024-02-28T08:58:14.982Z,76.51
2024-02-28T09:01:17.508Z,78.98
2024-02-28T09:04:20.262Z,77.64
2024-02-28T09:07:22.365Z,82.38
2024-02-28T09:10:25.963Z,79.37
2024-02-28T09:13:28.742Z,71.16
2024-02-28T09:16:31.362Z,78.23
2024-02-28T09:19:33.800Z,77.39
2024-02-28T09:22:36.391Z,77.98
2024-02-28T09:25:38.667Z,73.16
2024-02-28T09:28:41.185Z,81.32
2024-02-28T09:31:43.792Z,79.46
2024-02-28T09:34:46.195Z,75.97
2024-02-28T09:37:48.494Z,71.19
2024-02-28T09:40:51.017Z,75.26
2024-02-28T09:43:53.891Z,73.73
2024-02-28T09:46:56.414Z,75.23
2024-02-28T09:50:02.098Z,68.58
2024-02-28T09:53:10.344Z,68.91
2024-02-28T09:56:13.852Z,77.93
2024-02-28T09:59:18.982Z,71.89
2024-02-28T10:02:22.622Z,73.80
2024-02-28T10:05:28.086Z,76.38
2024-02-28T10:08:30.598Z,78.00
2024-02-28T10:11:34.394Z,73.35
2024-02-28T10:14:36.789Z,69.73
2024-02-28T10:17:39.407Z,68.07
2024-02-28T10:20:41.669Z,77.29
2024-02-28T10:23:45.098Z,72.38
2024-02-28T10:26:57.702Z,74.70
2024-02-28T10:30:00.340Z,73.32
2024-02-28T10:33:02.642Z,68.87
2024-02-28T10:36:06.592Z,69.42
2024-02-28T10:39:16.620Z,67.20
2024-02-28T10:42:20.180Z,66.50
2024-02-28T10:45:35.321Z,75.10
2024-02-28T10:48:52.939Z,66.71
2024-02-28T10:51:57.556Z,68.45
2024-02-28T10:55:01.774Z,73.48
2024-02-28T10:58:11.378Z,73.55
2024-02-28T11:01:14.200Z,75.51
2024-02-28T11:04:20.874Z,68.34
2024-02-28T11:07:23.551Z,70.22
2024-02-28T11:10:33.621Z,67.98
2024-02-28T11:13:36.695Z,73.04
2024-02-28T11:16:39.020Z,73.93
2024-02-28T11:19:41.592Z,70.85
2024-02-28T11:22:44.556Z,64.99
2024-02-28T11:25:47.211Z,64.21
2024-02-28T11:28:50.032Z,69.43
2024-02-28T11:31:53.051Z,70.04
2024-02-28T11:34:55.417Z,72.60
2024-02-28T11:37:58.358Z,68.62
2024-02-28T11:41:00.592Z,75.28
2024-02-28T11:44:03.069Z,73.16
2024-02-28T11:47:13.134Z,67.24
2024-02-28T11:50:20.126Z,72.62
2024-02-28T11:53:25.362Z,73.28
2024-02-28T11:56:29.309Z,65.85
2024-02-28T11:59:31.410Z,65.79
2024-02-28T12:02:33.878Z,70.52
2024-02-28T12:05:39.550Z,66.93
2024-02-28T12:08:41.679Z,68.11
2024-02-28T12:11:44.263Z,68.08
2024-02-28T12:14:47.550Z,65.87
2024-02-28T12:17:50.141Z,62.76
2024-02-28T12:20:52.422Z,71.24
2024-02-28T12:23:55.054Z,63.71
2024-02-28T12:26:57.232Z,70.51
2024-02-28T12:29:59.626Z,75.27
2024-02-28T12:33:01.913Z,70.37
2024-02-28T12:36:05.637Z,74.39
2024-02-28T12:39:07.771Z,69.86
2024-02-28T12:42:10.304Z,71.39
2024-02-28T12:45:12.563Z,72.49
2024-02-28T12:48:15.200Z,61.85
2024-02-28T12:51:37.869Z,61.96
2024-02-28T12:54:40.529Z,62.33
2024-02-28T12:57:45.113Z,64.67
2024-02-28T13:00:47.665Z,77.69
2024-02-28T13:03:49.815Z,70.85
2024-02-28T13:06:54.208Z,64.44
2024-02-28T13:09:56.739Z,62.97
2024-02-28T13:12:59.183Z,67.92
2024-02-28T13:16:01.434Z,68.33
2024-02-28T13:19:04.060Z,64.65
2024-02-28T13:22:06.417Z,61.47
2024-02-28T13:25:10.207Z,65.39
2024-02-28T13:28:12.937Z,62.42
2024-02-28T13:31:15.998Z,61.98
2024-02-28T13:34:18.173Z,60.48
2024-02-28T13:37:20.618Z,62.99
2024-02-28T13:40:22.921Z,60.48
2024-02-28T13:43:25.337Z,65.23
2024-02-28T13:46:27.473Z,69.47
2024-02-28T13:49:29.877Z,71.78
2024-02-28T13:52:32.199Z,64.08
2024-02-28T13:55:35.919Z,61.53
2024-02-28T13:58:42.995Z,59.31
2024-02-28T14:01:52.019Z,63.49
2024-02-28T14:04:55.680Z,62.93
2024-02-28T14:08:00.561Z,65.12
2024-02-28T14:11:06.122Z,66.77
2024-02-28T14:14:08.807Z,67.49
2024-02-28T14:17:11.246Z,67.72
2024-02-28T14:20:14.107Z,62.51
2024-02-28T14:23:16.533Z,69.55
2024-02-28T14:26:19.055Z,59.84
2024-02-28T14:29:21.619Z,66.29
2024-02-28T14:32:23.821Z,65.65
2024-02-28T14:35:26.284Z,65.90
2024-02-28T14:38:28.773Z,67.95
2024-02-28T14:41:32.958Z,67.91
2024-02-28T14:44:35.542Z,67.66
2024-02-28T14:47:38.762Z,63.64
2024-02-28T14:50:40.961Z,66.61
2024-02-28T14:53:43.374Z,65.42
2024-02-28T14:56:45.527Z,61.99
2024-02-28T14:59:48.023Z,62.61
2024-02-28T15:02:54.842Z,63.86
2024-02-28T15:05:57.326Z,62.92
2024-02-28T15:08:59.454Z,63.59
2024-02-28T15:12:02.005Z,61.75
2024-02-28T15:15:08.023Z,68.70
2024-02-28T15:18:10.851Z,66.02
2024-02-28T15:21:13.172Z,65.14
2024-02-28T15:24:17.383Z,67.50
2024-02-28T15:27:20.114Z,64.94
2024-02-28T15:30:22.530Z,66.06
2024-02-28T15:33:24.872Z,64.48
2024-02-28T15:36:27.355Z,66.46
2024-02-28T15:39:29.606Z,65.35
2024-02-28T15:42:32.617Z,69.57
2024-02-28T15:45:35.257Z,68.79
2024-02-28T15:48:37.837Z,69.24
2024-02-28T15:51:40.029Z,68.45
2024-02-28T15:54:42.728Z,69.01
2024-02-28T15:57:44.941Z,66.84
2024-02-28T16:00:47.817Z,69.59
2024-02-28T16:03:50.532Z,67.82
2024-02-28T16:06:52.896Z,66.10
2024-02-28T16:09:55.390Z,67.49
2024-02-28T16:12:57.809Z,65.87
2024-02-28T16:16:00.246Z,66.05
2024-02-28T16:19:08.947Z,67.84
2024-02-28T16:22:15.318Z,69.20
2024-02-28T16:25:17.472Z,69.34
2024-02-28T16:28:19.928Z,68.57
2024-02-28T16:31:22.096Z,76.23
2024-02-28T16:34:27.324Z,78.02
2024-02-28T16:37:29.469Z,75.82
2024-02-28T16:40:31.846Z,70.42
2024-02-28T16:43:34.005Z,74.79
